Time;durP1;ratioP1;P1;durP2;ratioP2;P2;SDS_P1;SDS_P2;PMS_P1;PMS_P2;Temp;Humidity;BMP_temperature;BMP_pressure;BME280_temperature;BME280_humidity;BME280_pressure;Samples;Min_cycle;Max_cycle;Signal;HPM_P1;HPM_P2
2021/12/02 00:00:43;;;;;;;1.05;0.40;;;;;;;15.03;67.04;99142.22;25640144;22;20015;-56
2021/12/02 00:10:45;;;;;;;5.30;1.10;;;;;;;15.38;66.63;99206.53;26020553;22;20016;-57
2021/12/02 00:21:09;;;;;;;4.80;0.70;;;;;;;15.32;65.92;99228.63;26021548;22;20150;-57
2021/12/02 00:31:15;;;;;;;2.65;0.70;;;;;;;15.26;65.44;99231.94;26021216;22;20019;-57
2021/12/02 00:41:20;;;;;;;1.55;0.55;;;;;;;15.22;65.02;99242.13;26020830;22;20020;-57
2021/12/02 00:51:26;;;;;;;4.97;1.33;;;;;;;15.17;64.57;99228.38;25993920;22;20023;-56
2021/12/02 01:01:34;;;;;;;3.75;0.70;;;;;;;15.06;64.50;99234.88;25877921;23;20031;-56
2021/12/02 01:11:38;;;;;;;4.28;0.80;;;;;;;15.09;66.96;99239.91;25824688;23;20016;-57
2021/12/02 01:21:42;;;;;;;3.80;0.90;;;;;;;15.09;67.26;99258.66;25865499;23;20012;-57
2021/12/02 01:31:49;;;;;;;2.90;0.77;;;;;;;14.74;67.38;99201.50;25891623;23;20077;-57
2021/12/02 01:41:54;;;;;;;2.97;0.70;;;;;;;14.62;66.76;99193.69;25849034;23;20020;-56
2021/12/02 01:51:56;;;;;;;2.13;0.73;;;;;;;14.99;68.43;99247.19;25848629;23;20024;-57
2021/12/02 02:01:58;;;;;;;2.90;0.77;;;;;;;15.06;68.30;99291.16;25970695;22;20027;-56
2021/12/02 02:12:03;;;;;;;4.40;1.00;;;;;;;14.70;68.95;99242.97;25990383;22;20089;-57
2021/12/02 02:22:05;;;;;;;2.30;0.70;;;;;;;15.06;69.18;99285.78;25974070;22;20019;-56
2021/12/02 02:32:07;;;;;;;2.70;0.73;;;;;;;15.17;68.69;99300.75;25974901;22;20512;-56
2021/12/02 02:42:09;;;;;;;2.30;0.85;;;;;;;14.39;68.82;99165.72;26016014;22;20016;-56
2021/12/02 02:52:11;;;;;;;3.03;0.60;;;;;;;15.16;69.18;99294.56;26015811;22;20096;-56
2021/12/02 03:02:22;;;;;;;3.90;0.70;;;;;;;15.19;69.03;99318.38;26016676;22;20020;-57
2021/12/02 03:12:32;;;;;;;3.47;0.52;;;;;;;15.20;68.85;99306.66;25964836;22;20069;-57
2021/12/02 03:22:34;;;;;;;4.45;0.80;;;;;;;15.12;69.21;99279.78;26013714;22;20453;-56
2021/12/02 03:32:37;;;;;;;3.15;0.60;;;;;;;14.93;68.97;99252.19;25988190;22;20340;-57
2021/12/02 03:42:51;;;;;;;4.40;1.30;;;;;;;14.71;68.91;99220.56;25994688;22;20152;-55
2021/12/02 03:53:01;;;;;;;2.88;0.50;;;;;;;14.85;68.21;99241.41;25979027;22;20015;-57
2021/12/02 04:03:03;;;;;;;3.35;1.23;;;;;;;14.87;68.24;99247.47;25979761;22;20039;-56
2021/12/02 04:23:07;;;;;;;1.10;0.30;;;;;;;15.28;67.62;99294.28;26021546;22;20019;-56
2021/12/02 04:33:09;;;;;;;2.25;0.68;;;;;;;14.91;67.25;99250.69;25978933;22;20454;-56
2021/12/02 04:43:10;;;;;;;3.05;0.52;;;;;;;15.31;66.65;99331.50;26019337;22;20019;-57
2021/12/02 04:53:12;;;;;;;1.35;0.35;;;;;;;15.03;65.91;99280.75;26019748;22;20102;-57
2021/12/02 05:03:14;;;;;;;2.45;0.65;;;;;;;15.51;65.79;99338.34;26020012;22;20419;-57
2021/12/02 05:13:17;;;;;;;2.30;0.50;;;;;;;15.76;65.29;99338.47;26019499;22;20038;-57
2021/12/02 05:23:19;;;;;;;1.83;0.32;;;;;;;16.15;64.38;99365.84;25990721;22;20016;-57
2021/12/02 05:33:21;;;;;;;2.90;0.47;;;;;;;16.17;63.83;99332.47;26017271;22;20081;-57
2021/12/02 05:43:24;;;;;;;3.88;0.40;;;;;;;15.81;63.45;99239.53;26018251;22;20016;-57
2021/12/02 05:53:25;;;;;;;1.95;0.60;;;;;;;16.56;63.35;99371.31;26016374;22;20028;-57
2021/12/02 06:03:27;;;;;;;1.10;0.38;;;;;;;16.17;63.23;99292.19;26015903;22;20015;-57
2021/12/02 06:13:31;;;;;;;1.73;0.55;;;;;;;16.67;62.39;99372.84;26017190;22;20451;-57
2021/12/02 06:23:35;;;;;;;11.38;1.35;;;;;;;16.70;61.96;99390.47;25974295;22;20020;-57
2021/12/02 06:33:36;;;;;;;1.17;0.20;;;;;;;16.27;61.19;99337.66;26015313;22;20017;-57
2021/12/02 06:43:38;;;;;;;2.10;0.40;;;;;;;16.24;61.33;99348.75;26016520;22;20094;-56
2021/12/02 06:53:40;;;;;;;3.88;0.40;;;;;;;16.49;61.21;99397.16;25973077;22;20016;-57
2021/12/02 07:03:42;;;;;;;2.80;1.25;;;;;;;16.67;61.32;99435.47;25971506;22;20032;-57
2021/12/02 07:13:46;;;;;;;1.85;0.40;;;;;;;16.36;60.72;99385.06;25986989;22;20012;-57
2021/12/02 07:23:48;;;;;;;1.10;0.50;;;;;;;16.65;60.91;99442.03;26013763;22;20527;-55
2021/12/02 07:33:52;;;;;;;0.95;0.45;;;;;;;16.67;60.66;99450.78;26015051;22;20011;-56
2021/12/02 07:43:54;;;;;;;1.13;0.30;;;;;;;16.65;60.62;99475.13;25987826;22;20038;-57
2021/12/02 07:53:58;;;;;;;2.42;0.38;;;;;;;16.64;60.49;99456.47;25987247;22;20393;-57
2021/12/02 08:04:00;;;;;;;2.95;0.52;;;;;;;16.78;59.84;99473.78;25986142;22;20451;-53
2021/12/02 08:14:02;;;;;;;1.13;0.30;;;;;;;16.62;60.22;99480.81;26012745;22;20434;-54
2021/12/02 08:24:05;;;;;;;3.85;0.40;;;;;;;16.67;60.13;99497.28;25971496;22;20494;-53
2021/12/02 08:34:07;;;;;;;0.38;0.25;;;;;;;16.17;60.64;99436.31;26019910;22;20475;-51
2021/12/02 08:44:09;;;;;;;2.20;0.30;;;;;;;16.40;60.04;99478.72;25993963;22;20049;-56
2021/12/02 08:54:12;;;;;;;1.88;0.35;;;;;;;16.85;59.51;99562.69;25992151;22;20022;-56
2021/12/02 09:04:14;;;;;;;1.58;0.25;;;;;;;16.84;60.18;99583.38;25993168;22;20043;-56
2021/12/02 09:14:16;;;;;;;3.65;0.30;;;;;;;16.70;59.48;99586.66;25991337;22;20450;-57
2021/12/02 10:16:27;;;;;;;2.45;0.30;;;;;;;17.62;59.46;99674.75;25954267;22;20378;-57
2021/12/02 10:26:33;;;;;;;1.13;0.30;;;;;;;17.01;59.61;99608.47;26011820;22;20043;-57
2021/12/02 10:36:44;;;;;;;4.03;0.40;;;;;;;17.18;60.31;99667.72;26011495;22;20038;-57
2021/12/02 10:47:02;;;;;;;5.95;0.73;;;;;;;17.35;59.21;99728.63;26010668;22;20080;-57
2021/12/02 10:57:17;;;;;;;4.30;1.00;;;;;;;16.88;60.21;99672.56;26011779;22;20032;-57
2021/12/02 11:07:20;;;;;;;4.88;0.60;;;;;;;16.80;61.15;99686.84;26008682;22;20341;-57
2021/12/02 11:17:29;;;;;;;6.18;0.73;;;;;;;16.70;60.75;99678.00;25967521;22;20111;-57
2021/12/02 11:27:35;;;;;;;3.25;0.60;;;;;;;17.09;62.43;99758.25;26010141;22;20553;-57
2021/12/02 11:37:40;;;;;;;4.05;0.70;;;;;;;16.67;62.97;99709.56;26011378;22;20110;-57
2021/12/02 11:47:42;;;;;;;6.32;0.80;;;;;;;17.05;61.86;99806.16;26006598;22;20015;-54
2021/12/02 11:57:44;;;;;;;4.45;0.60;;;;;;;16.94;63.07;99820.66;26009815;22;20084;-56
2021/12/02 12:07:47;;;;;;;4.05;0.90;;;;;;;16.61;63.22;99790.81;26018842;22;20490;-57
2021/12/02 12:17:49;;;;;;;5.63;0.70;;;;;;;16.94;63.22;99850.22;26017066;22;20073;-57
2021/12/02 12:27:58;;;;;;;1.33;0.32;;;;;;;17.07;62.86;99873.22;25975181;22;20371;-57
2021/12/02 12:38:04;;;;;;;1.63;0.52;;;;;;;17.13;63.33;99867.19;26014704;22;20015;-54
2021/12/02 12:48:12;;;;;;;5.40;0.50;;;;;;;16.73;65.29;99837.13;26015793;22;20026;-57
2021/12/02 12:58:19;;;;;;;1.95;0.50;;;;;;;16.53;65.14;99823.00;26014218;22;20020;-57
2021/12/02 13:08:26;;;;;;;1.75;0.50;;;;;;;16.77;65.01;99891.38;26014698;22;20018;-57
2021/12/02 13:18:33;;;;;;;1.60;0.32;;;;;;;16.96;65.01;99942.31;26014382;22;20031;-56
2021/12/02 13:28:44;;;;;;;1.00;0.40;;;;;;;16.61;65.05;99870.59;26012711;22;20007;-57
2021/12/02 13:38:59;;;;;;;2.83;0.22;;;;;;;17.05;64.48;99953.19;26015411;22;20027;-58
2021/12/02 13:49:04;;;;;;;0.60;0.30;;;;;;;16.76;63.60;99948.84;26015089;22;20050;-57
2021/12/02 13:59:17;;;;;;;0.80;0.20;;;;;;;16.94;63.71;100000.78;25970362;22;20107;-57
2021/12/02 14:09:19;;;;;;;1.00;0.30;;;;;;;16.52;63.48;99934.97;26012302;22;20349;-57
2021/12/02 14:19:21;;;;;;;0.73;0.40;;;;;;;16.56;63.61;99975.84;25965122;22;20077;-57
2021/12/02 14:29:22;;;;;;;1.73;0.28;;;;;;;16.93;63.01;100036.75;25970632;22;20023;-57
2021/12/02 14:39:25;;;;;;;0.22;0.22;;;;;;;16.92;63.70;100056.56;25970329;22;20027;-58
2021/12/02 14:49:39;;;;;;;1.05;0.47;;;;;;;16.45;62.94;99995.69;25968484;22;20061;-57
2021/12/02 14:59:43;;;;;;;1.17;0.43;;;;;;;16.37;62.91;99991.06;25966897;22;20075;-57
2021/12/02 15:09:55;;;;;;;0.68;0.20;;;;;;;16.83;62.52;100100.47;25987083;22;20099;-55
2021/12/02 15:19:56;;;;;;;2.00;0.20;;;;;;;16.77;61.89;100112.66;25969548;22;20058;-57
2021/12/02 15:29:58;;;;;;;0.43;0.20;;;;;;;16.71;62.08;100120.44;26011389;22;20016;-57
2021/12/02 15:40:01;;;;;;;1.23;0.32;;;;;;;16.73;62.22;100148.88;25974271;22;20106;-56
2021/12/02 15:50:09;;;;;;;1.55;0.30;;;;;;;16.74;62.31;100187.34;26019645;22;20039;-57
2021/12/02 16:00:17;;;;;;;0.25;0.13;;;;;;;16.64;61.80;100166.72;26017442;22;20023;-54
2021/12/02 16:20:40;;;;;;;1.52;0.35;;;;;;;16.38;61.60;100132.47;26017577;22;20560;-57
2021/12/02 16:30:44;;;;;;;0.30;0.28;;;;;;;16.37;61.19;100148.69;26015797;22;20099;-57
2021/12/02 16:40:46;;;;;;;1.38;0.35;;;;;;;16.81;61.12;100236.88;25972924;22;20435;-57
2021/12/02 16:50:50;;;;;;;0.47;0.15;;;;;;;16.67;60.65;100219.34;26014399;22;20027;-57
2021/12/02 17:00:52;;;;;;;0.40;0.30;;;;;;;16.80;60.32;100257.53;25989130;22;20102;-57
2021/12/02 17:11:02;;;;;;;0.52;0.32;;;;;;;16.78;60.13;100270.25;26014292;22;20027;-57
2021/12/02 17:21:04;;;;;;;0.20;0.20;;;;;;;16.76;60.33;100284.81;26015447;22;20024;-57
2021/12/02 17:31:07;;;;;;;0.90;0.30;;;;;;;16.25;60.17;100201.72;25971364;22;20046;-57
2021/12/02 17:41:09;;;;;;;1.08;0.20;;;;;;;16.40;60.11;100234.38;26013089;22;20043;-57
2021/12/02 17:51:11;;;;;;;1.55;0.20;;;;;;;16.38;60.21;100245.28;26014381;22;20039;-57
2021/12/02 18:01:14;;;;;;;0.30;0.20;;;;;;;16.61;60.01;100296.03;26011983;22;20083;-56
2021/12/02 18:11:16;;;;;;;0.40;0.40;;;;;;;16.40;59.94;100289.97;25987461;22;20031;-57
2021/12/02 18:21:19;;;;;;;0.77;0.40;;;;;;;16.76;59.89;100360.09;26011781;22;20435;-57
2021/12/02 18:31:27;;;;;;;1.98;0.50;;;;;;;16.39;59.07;100286.41;25968191;22;20047;-57
2021/12/02 18:41:31;;;;;;;0.73;0.35;;;;;;;16.68;58.77;100366.19;26010623;22;20043;-55
2021/12/02 18:51:33;;;;;;;1.05;0.40;;;;;;;16.51;59.02;100370.41;25967514;22;20055;-57
2021/12/02 19:01:35;;;;;;;1.25;0.38;;;;;;;15.54;59.06;100243.88;26010025;22;20020;-57
2021/12/02 19:32:18;;;;;;;3.05;0.50;;;;;;;15.92;59.50;100405.22;26009454;22;20103;-57
2021/12/02 19:42:20;;;;;;;1.85;0.85;;;;;;;15.34;59.81;100320.72;26009158;22;20065;-56
2021/12/02 19:52:22;;;;;;;1.95;0.70;;;;;;;15.63;61.29;100390.63;26010792;22;20443;-57
2021/12/02 20:02:24;;;;;;;1.23;0.47;;;;;;;15.52;60.89;100405.00;26011013;22;20008;-57
2021/12/02 20:12:27;;;;;;;2.65;0.60;;;;;;;15.09;61.53;100347.00;26009487;22;20026;-57
2021/12/02 20:22:29;;;;;;;2.63;0.60;;;;;;;15.20;61.68;100381.78;25970515;22;20028;-57
2021/12/02 20:32:31;;;;;;;2.88;0.65;;;;;;;15.18;62.38;100405.19;26015333;22;20447;-57
2021/12/02 20:42:33;;;;;;;1.83;0.57;;;;;;;15.00;62.04;100393.34;26017575;22;20016;-55
2021/12/02 20:52:35;;;;;;;1.75;0.77;;;;;;;14.92;62.30;100416.28;26017071;22;20024;-56
2021/12/02 21:02:37;;;;;;;1.40;0.50;;;;;;;14.45;62.61;100359.44;26017068;22;20015;-57
2021/12/02 21:12:39;;;;;;;1.65;0.63;;;;;;;14.91;62.79;100438.69;26016663;22;20023;-56
2021/12/02 21:22:42;;;;;;;1.75;0.70;;;;;;;14.35;63.31;100367.38;25971702;22;20028;-56
2021/12/02 21:32:44;;;;;;;2.63;0.80;;;;;;;14.29;63.11;100357.16;26016936;22;20043;-56
2021/12/02 21:42:47;;;;;;;3.15;0.80;;;;;;;14.75;63.56;100440.97;26014176;22;20011;-50
2021/12/02 21:52:49;;;;;;;1.45;0.70;;;;;;;14.58;63.41;100418.22;26013355;22;20056;-56
2021/12/02 22:02:51;;;;;;;2.78;0.88;;;;;;;14.73;63.18;100464.34;25971712;22;20303;-55
2021/12/02 22:12:53;;;;;;;2.20;0.75;;;;;;;14.63;62.84;100458.88;26013373;22;20016;-55
2021/12/02 22:22:55;;;;;;;2.47;0.70;;;;;;;14.34;62.68;100406.69;26014106;22;20015;-57
2021/12/02 22:32:57;;;;;;;2.33;0.93;;;;;;;14.75;62.88;100505.28;26011844;22;20012;-56
2021/12/02 22:42:59;;;;;;;1.15;0.70;;;;;;;14.48;62.36;100461.81;26012296;22;20096;-57
2021/12/02 22:53:01;;;;;;;2.45;0.93;;;;;;;14.84;62.62;100501.84;25969879;22;20114;-57
2021/12/02 23:03:03;;;;;;;1.05;0.68;;;;;;;14.46;62.41;100434.31;26009387;22;20019;-57
2021/12/02 23:13:08;;;;;;;0.68;0.50;;;;;;;14.90;61.66;100498.66;26012159;22;20046;-57
2021/12/02 23:23:11;;;;;;;3.40;1.25;;;;;;;14.49;61.74;100414.44;25970123;22;20047;-57
2021/12/02 23:33:21;;;;;;;1.40;0.68;;;;;;;14.50;61.03;100392.91;26010277;22;20027;-56
2021/12/02 23:43:23;;;;;;;1.85;0.60;;;;;;;14.52;61.42;100400.81;26010007;22;20011;-57
2021/12/02 23:53:25;;;;;;;2.30;0.80;;;;;;;14.98;61.37;100481.94;25968471;22;20044;-56
